sensor_id;sensor_type;location;lat;lon;timestamp;temperature;humidity
56538;DHT22;42435;53.292;6.000;2023-02-28T00:00:23;6.20;76.10
56538;DHT22;42435;53.292;6.000;2023-02-28T00:02:48;6.20;76.10
56538;DHT22;42435;53.292;6.000;2023-02-28T00:05:18;6.20;76.10
56538;DHT22;42435;53.292;6.000;2023-02-28T00:07:45;6.20;76.10
56538;DHT22;42435;53.292;6.000;2023-02-28T00:10:13;6.20;76.10
56538;DHT22;42435;53.292;6.000;2023-02-28T00:12:39;6.20;76.00
56538;DHT22;42435;53.292;6.000;2023-02-28T00:15:06;6.20;76.00
56538;DHT22;42435;53.292;6.000;2023-02-28T00:17:32;6.20;76.10
56538;DHT22;42435;53.292;6.000;2023-02-28T00:19:57;6.20;76.10
56538;DHT22;42435;53.292;6.000;2023-02-28T00:22:35;6.20;76.10
56538;DHT22;42435;53.292;6.000;2023-02-28T00:25:01;6.20;76.20
56538;DHT22;42435;53.292;6.000;2023-02-28T00:27:27;6.20;76.20
56538;DHT22;42435;53.292;6.000;2023-02-28T00:29:52;6.10;76.30
56538;DHT22;42435;53.292;6.000;2023-02-28T00:32:19;6.20;76.40
56538;DHT22;42435;53.292;6.000;2023-02-28T00:34:45;6.10;76.40
56538;DHT22;42435;53.292;6.000;2023-02-28T00:37:10;6.10;76.40
56538;DHT22;42435;53.292;6.000;2023-02-28T00:39:37;6.10;76.50
56538;DHT22;42435;53.292;6.000;2023-02-28T00:42:04;6.10;76.60
56538;DHT22;42435;53.292;6.000;2023-02-28T00:44:30;6.10;76.60
56538;DHT22;42435;53.292;6.000;2023-02-28T00:46:56;6.10;76.70
56538;DHT22;42435;53.292;6.000;2023-02-28T00:49:22;6.10;76.70
56538;DHT22;42435;53.292;6.000;2023-02-28T00:51:48;6.10;76.80
56538;DHT22;42435;53.292;6.000;2023-02-28T00:54:14;6.10;76.90
56538;DHT22;42435;53.292;6.000;2023-02-28T00:56:40;6.10;77.00
56538;DHT22;42435;53.292;6.000;2023-02-28T00:59:05;6.10;77.20
56538;DHT22;42435;53.292;6.000;2023-02-28T01:01:31;6.10;77.20
56538;DHT22;42435;53.292;6.000;2023-02-28T01:03:57;6.10;77.30
56538;DHT22;42435;53.292;6.000;2023-02-28T01:06:22;6.10;77.30
56538;DHT22;42435;53.292;6.000;2023-02-28T01:08:48;6.20;77.30
56538;DHT22;42435;53.292;6.000;2023-02-28T01:11:18;6.10;77.30
56538;DHT22;42435;53.292;6.000;2023-02-28T01:13:45;6.10;77.40
56538;DHT22;42435;53.292;6.000;2023-02-28T01:16:13;6.10;77.50
56538;DHT22;42435;53.292;6.000;2023-02-28T01:18:39;6.10;77.60
56538;DHT22;42435;53.292;6.000;2023-02-28T01:21:09;6.10;77.70
56538;DHT22;42435;53.292;6.000;2023-02-28T01:23:35;6.10;77.70
56538;DHT22;42435;53.292;6.000;2023-02-28T01:26:09;6.10;77.80
56538;DHT22;42435;53.292;6.000;2023-02-28T01:28:35;6.10;77.90
56538;DHT22;42435;53.292;6.000;2023-02-28T01:31:01;6.20;77.80
56538;DHT22;42435;53.292;6.000;2023-02-28T01:33:26;6.20;77.70
56538;DHT22;42435;53.292;6.000;2023-02-28T01:38:25;6.10;77.50
56538;DHT22;42435;53.292;6.000;2023-02-28T01:40:51;6.20;77.50
56538;DHT22;42435;53.292;6.000;2023-02-28T01:43:23;6.20;77.50
56538;DHT22;42435;53.292;6.000;2023-02-28T01:45:49;6.10;77.50
56538;DHT22;42435;53.292;6.000;2023-02-28T01:48:15;6.10;77.50
56538;DHT22;42435;53.292;6.000;2023-02-28T01:50:43;6.10;77.50
56538;DHT22;42435;53.292;6.000;2023-02-28T01:53:14;6.20;77.60
56538;DHT22;42435;53.292;6.000;2023-02-28T01:55:42;6.20;77.50
56538;DHT22;42435;53.292;6.000;2023-02-28T01:58:10;6.20;77.40
56538;DHT22;42435;53.292;6.000;2023-02-28T02:00:37;6.20;77.40
56538;DHT22;42435;53.292;6.000;2023-02-28T02:03:11;6.20;77.50
56538;DHT22;42435;53.292;6.000;2023-02-28T02:05:39;6.20;77.50
56538;DHT22;42435;53.292;6.000;2023-02-28T02:08:12;6.20;77.50
56538;DHT22;42435;53.292;6.000;2023-02-28T02:11:00;6.20;77.60
56538;DHT22;42435;53.292;6.000;2023-02-28T02:19:41;6.30;77.70
56538;DHT22;42435;53.292;6.000;2023-02-28T02:22:48;6.30;77.70
56538;DHT22;42435;53.292;6.000;2023-02-28T02:38:50;6.40;77.50
56538;DHT22;42435;53.292;6.000;2023-02-28T02:43:49;6.40;77.60
56538;DHT22;42435;53.292;6.000;2023-02-28T02:46:43;6.40;77.70
56538;DHT22;42435;53.292;6.000;2023-02-28T02:49:20;6.40;78.10
56538;DHT22;42435;53.292;6.000;2023-02-28T02:51:47;6.30;78.10
56538;DHT22;42435;53.292;6.000;2023-02-28T02:54:24;6.30;78.00
56538;DHT22;42435;53.292;6.000;2023-02-28T02:56:55;6.30;78.10
56538;DHT22;42435;53.292;6.000;2023-02-28T02:59:22;6.40;78.00
56538;DHT22;42435;53.292;6.000;2023-02-28T03:01:54;6.40;78.10
56538;DHT22;42435;53.292;6.000;2023-02-28T03:04:23;6.40;78.30
56538;DHT22;42435;53.292;6.000;2023-02-28T03:06:51;6.40;78.20
56538;DHT22;42435;53.292;6.000;2023-02-28T03:09:21;6.40;78.10
56538;DHT22;42435;53.292;6.000;2023-02-28T03:11:47;6.40;78.00
56538;DHT22;42435;53.292;6.000;2023-02-28T03:14:28;6.40;77.90
56538;DHT22;42435;53.292;6.000;2023-02-28T03:17:16;6.40;77.90
56538;DHT22;42435;53.292;6.000;2023-02-28T03:20:04;6.50;78.00
56538;DHT22;42435;53.292;6.000;2023-02-28T03:25:24;6.50;78.10
56538;DHT22;42435;53.292;6.000;2023-02-28T03:30:52;6.50;78.10
56538;DHT22;42435;53.292;6.000;2023-02-28T03:33:38;6.50;78.20
56538;DHT22;42435;53.292;6.000;2023-02-28T03:36:09;6.50;78.20
56538;DHT22;42435;53.292;6.000;2023-02-28T03:38:40;6.50;78.20
56538;DHT22;42435;53.292;6.000;2023-02-28T03:41:12;6.50;78.30
56538;DHT22;42435;53.292;6.000;2023-02-28T03:43:43;6.40;78.30
56538;DHT22;42435;53.292;6.000;2023-02-28T03:46:12;6.50;78.30
56538;DHT22;42435;53.292;6.000;2023-02-28T03:48:51;6.40;78.40
56538;DHT22;42435;53.292;6.000;2023-02-28T03:51:23;6.50;78.60
56538;DHT22;42435;53.292;6.000;2023-02-28T03:53:54;6.50;78.50
56538;DHT22;42435;53.292;6.000;2023-02-28T03:56:41;6.50;78.70
56538;DHT22;42435;53.292;6.000;2023-02-28T03:59:42;6.50;78.80
56538;DHT22;42435;53.292;6.000;2023-02-28T04:02:09;6.50;78.70
56538;DHT22;42435;53.292;6.000;2023-02-28T04:04:35;6.50;78.50
56538;DHT22;42435;53.292;6.000;2023-02-28T04:07:08;6.60;78.70
56538;DHT22;42435;53.292;6.000;2023-02-28T04:09:34;6.60;79.00
56538;DHT22;42435;53.292;6.000;2023-02-28T04:12:00;6.70;79.00
56538;DHT22;42435;53.292;6.000;2023-02-28T04:14:26;6.70;79.10
56538;DHT22;42435;53.292;6.000;2023-02-28T04:16:52;6.80;79.10
56538;DHT22;42435;53.292;6.000;2023-02-28T04:19:18;6.80;79.20
56538;DHT22;42435;53.292;6.000;2023-02-28T04:21:49;6.80;79.30
56538;DHT22;42435;53.292;6.000;2023-02-28T04:24:23;6.90;79.40
56538;DHT22;42435;53.292;6.000;2023-02-28T04:26:52;6.90;79.50
56538;DHT22;42435;53.292;6.000;2023-02-28T04:29:32;6.90;79.50
56538;DHT22;42435;53.292;6.000;2023-02-28T04:31:59;6.90;79.50
56538;DHT22;42435;53.292;6.000;2023-02-28T04:34:26;6.90;79.60
56538;DHT22;42435;53.292;6.000;2023-02-28T04:36:54;7.00;79.60
56538;DHT22;42435;53.292;6.000;2023-02-28T04:39:21;7.00;79.60
56538;DHT22;42435;53.292;6.000;2023-02-28T04:41:47;7.00;79.60
56538;DHT22;42435;53.292;6.000;2023-02-28T04:44:13;7.00;79.60
56538;DHT22;42435;53.292;6.000;2023-02-28T04:46:39;7.00;79.60
56538;DHT22;42435;53.292;6.000;2023-02-28T04:49:05;7.00;79.70
56538;DHT22;42435;53.292;6.000;2023-02-28T04:51:31;7.00;79.70
56538;DHT22;42435;53.292;6.000;2023-02-28T04:53:57;7.00;79.80
56538;DHT22;42435;53.292;6.000;2023-02-28T04:56:23;7.00;79.80
56538;DHT22;42435;53.292;6.000;2023-02-28T04:58:49;7.00;79.90
56538;DHT22;42435;53.292;6.000;2023-02-28T05:03:47;7.00;80.00
56538;DHT22;42435;53.292;6.000;2023-02-28T05:06:13;7.10;80.00
56538;DHT22;42435;53.292;6.000;2023-02-28T05:08:40;7.10;80.10
56538;DHT22;42435;53.292;6.000;2023-02-28T05:11:10;7.10;80.10
56538;DHT22;42435;53.292;6.000;2023-02-28T05:13:37;7.10;80.10
56538;DHT22;42435;53.292;6.000;2023-02-28T05:16:02;7.10;80.10
56538;DHT22;42435;53.292;6.000;2023-02-28T05:18:28;7.00;80.10
56538;DHT22;42435;53.292;6.000;2023-02-28T05:20:53;7.10;80.20
56538;DHT22;42435;53.292;6.000;2023-02-28T05:23:21;7.10;80.20
56538;DHT22;42435;53.292;6.000;2023-02-28T05:25:47;7.10;80.20
56538;DHT22;42435;53.292;6.000;2023-02-28T05:28:13;7.10;80.20
56538;DHT22;42435;53.292;6.000;2023-02-28T05:30:39;7.10;80.20
56538;DHT22;42435;53.292;6.000;2023-02-28T05:33:05;7.10;80.20
56538;DHT22;42435;53.292;6.000;2023-02-28T05:35:30;7.10;80.10
56538;DHT22;42435;53.292;6.000;2023-02-28T05:37:56;7.10;80.10
56538;DHT22;42435;53.292;6.000;2023-02-28T05:40:22;7.10;80.10
56538;DHT22;42435;53.292;6.000;2023-02-28T05:42:50;7.10;80.10
56538;DHT22;42435;53.292;6.000;2023-02-28T05:45:15;7.10;80.10
56538;DHT22;42435;53.292;6.000;2023-02-28T05:47:42;7.10;80.10
56538;DHT22;42435;53.292;6.000;2023-02-28T05:50:08;7.10;80.10
56538;DHT22;42435;53.292;6.000;2023-02-28T05:52:35;7.10;80.10
56538;DHT22;42435;53.292;6.000;2023-02-28T05:55:01;7.10;80.20
56538;DHT22;42435;53.292;6.000;2023-02-28T05:57:27;7.10;80.20
56538;DHT22;42435;53.292;6.000;2023-02-28T05:59:52;7.10;80.20
56538;DHT22;42435;53.292;6.000;2023-02-28T06:02:18;7.10;80.20
56538;DHT22;42435;53.292;6.000;2023-02-28T06:04:44;7.00;80.20
56538;DHT22;42435;53.292;6.000;2023-02-28T06:07:10;7.00;80.30
56538;DHT22;42435;53.292;6.000;2023-02-28T06:09:36;6.90;80.30
56538;DHT22;42435;53.292;6.000;2023-02-28T06:12:03;6.90;80.30
56538;DHT22;42435;53.292;6.000;2023-02-28T06:14:31;6.90;80.30
56538;DHT22;42435;53.292;6.000;2023-02-28T06:16:58;6.90;80.30
56538;DHT22;42435;53.292;6.000;2023-02-28T06:19:23;6.90;80.30
56538;DHT22;42435;53.292;6.000;2023-02-28T06:21:51;6.80;80.30
56538;DHT22;42435;53.292;6.000;2023-02-28T06:24:19;6.80;80.20
56538;DHT22;42435;53.292;6.000;2023-02-28T06:26:45;6.70;80.20
56538;DHT22;42435;53.292;6.000;2023-02-28T06:29:11;6.70;80.10
56538;DHT22;42435;53.292;6.000;2023-02-28T06:31:37;6.60;79.90
56538;DHT22;42435;53.292;6.000;2023-02-28T06:34:04;6.50;79.90
56538;DHT22;42435;53.292;6.000;2023-02-28T06:36:30;6.50;79.80
56538;DHT22;42435;53.292;6.000;2023-02-28T06:38:56;6.40;79.80
56538;DHT22;42435;53.292;6.000;2023-02-28T06:41:25;6.40;79.70
56538;DHT22;42435;53.292;6.000;2023-02-28T06:43:51;6.30;79.70
56538;DHT22;42435;53.292;6.000;2023-02-28T06:46:17;6.20;79.70
56538;DHT22;42435;53.292;6.000;2023-02-28T06:48:44;6.10;79.80
56538;DHT22;42435;53.292;6.000;2023-02-28T06:51:13;6.10;79.70
56538;DHT22;42435;53.292;6.000;2023-02-28T06:53:39;6.00;79.70
56538;DHT22;42435;53.292;6.000;2023-02-28T06:56:11;6.00;79.60
56538;DHT22;42435;53.292;6.000;2023-02-28T06:58:37;5.90;79.60
56538;DHT22;42435;53.292;6.000;2023-02-28T07:01:05;5.90;79.50
56538;DHT22;42435;53.292;6.000;2023-02-28T07:03:31;5.70;79.50
56538;DHT22;42435;53.292;6.000;2023-02-28T07:05:56;5.70;79.60
56538;DHT22;42435;53.292;6.000;2023-02-28T07:08:23;5.70;79.70
56538;DHT22;42435;53.292;6.000;2023-02-28T07:10:55;5.60;79.70
56538;DHT22;42435;53.292;6.000;2023-02-28T07:13:22;5.50;79.70
56538;DHT22;42435;53.292;6.000;2023-02-28T07:15:59;5.50;79.70
56538;DHT22;42435;53.292;6.000;2023-02-28T07:18:26;5.40;79.90
56538;DHT22;42435;53.292;6.000;2023-02-28T07:20:52;5.40;79.80
56538;DHT22;42435;53.292;6.000;2023-02-28T07:23:18;5.40;80.10
56538;DHT22;42435;53.292;6.000;2023-02-28T07:25:44;5.40;80.10
56538;DHT22;42435;53.292;6.000;2023-02-28T07:28:11;5.40;80.10
56538;DHT22;42435;53.292;6.000;2023-02-28T07:30:37;5.30;80.20
56538;DHT22;42435;53.292;6.000;2023-02-28T07:33:03;5.30;80.20
56538;DHT22;42435;53.292;6.000;2023-02-28T07:35:29;5.20;80.20
56538;DHT22;42435;53.292;6.000;2023-02-28T07:37:58;5.20;80.10
56538;DHT22;42435;53.292;6.000;2023-02-28T07:40:24;5.10;80.20
56538;DHT22;42435;53.292;6.000;2023-02-28T07:42:50;5.10;80.20
56538;DHT22;42435;53.292;6.000;2023-02-28T07:45:15;5.10;80.20
56538;DHT22;42435;53.292;6.000;2023-02-28T07:47:43;5.00;80.20
56538;DHT22;42435;53.292;6.000;2023-02-28T07:50:10;5.00;80.30
56538;DHT22;42435;53.292;6.000;2023-02-28T07:52:37;5.00;80.30
56538;DHT22;42435;53.292;6.000;2023-02-28T07:55:04;5.00;80.30
56538;DHT22;42435;53.292;6.000;2023-02-28T07:57:33;5.00;80.30
56538;DHT22;42435;53.292;6.000;2023-02-28T07:59:59;4.90;80.30
56538;DHT22;42435;53.292;6.000;2023-02-28T08:02:25;4.90;80.20
56538;DHT22;42435;53.292;6.000;2023-02-28T08:04:51;4.90;80.30
56538;DHT22;42435;53.292;6.000;2023-02-28T08:07:17;4.90;80.30
56538;DHT22;42435;53.292;6.000;2023-02-28T08:09:44;4.90;80.40
56538;DHT22;42435;53.292;6.000;2023-02-28T08:12:10;4.80;80.30
56538;DHT22;42435;53.292;6.000;2023-02-28T08:14:36;4.90;80.30
56538;DHT22;42435;53.292;6.000;2023-02-28T08:17:02;4.80;80.30
56538;DHT22;42435;53.292;6.000;2023-02-28T08:19:28;4.80;80.40
56538;DHT22;42435;53.292;6.000;2023-02-28T08:21:54;4.90;80.50
56538;DHT22;42435;53.292;6.000;2023-02-28T08:24:20;4.90;80.60
56538;DHT22;42435;53.292;6.000;2023-02-28T08:26:47;4.90;80.60
56538;DHT22;42435;53.292;6.000;2023-02-28T08:29:12;4.90;80.60
56538;DHT22;42435;53.292;6.000;2023-02-28T08:31:38;5.00;80.50
56538;DHT22;42435;53.292;6.000;2023-02-28T08:34:12;5.00;80.40
56538;DHT22;42435;53.292;6.000;2023-02-28T08:36:39;5.10;80.40
56538;DHT22;42435;53.292;6.000;2023-02-28T08:39:05;5.10;80.40
56538;DHT22;42435;53.292;6.000;2023-02-28T08:41:31;5.10;80.30
56538;DHT22;42435;53.292;6.000;2023-02-28T08:43:57;5.10;80.30
56538;DHT22;42435;53.292;6.000;2023-02-28T08:46:23;5.20;80.40
56538;DHT22;42435;53.292;6.000;2023-02-28T08:48:52;5.20;80.40
56538;DHT22;42435;53.292;6.000;2023-02-28T08:51:18;5.30;80.40
56538;DHT22;42435;53.292;6.000;2023-02-28T08:53:52;5.30;80.30
56538;DHT22;42435;53.292;6.000;2023-02-28T08:56:18;5.40;80.30
56538;DHT22;42435;53.292;6.000;2023-02-28T08:58:44;5.50;80.20
56538;DHT22;42435;53.292;6.000;2023-02-28T09:01:21;5.50;80.20
56538;DHT22;42435;53.292;6.000;2023-02-28T09:03:48;5.60;80.10
56538;DHT22;42435;53.292;6.000;2023-02-28T09:06:19;5.70;80.00
56538;DHT22;42435;53.292;6.000;2023-02-28T09:08:45;5.80;79.80
56538;DHT22;42435;53.292;6.000;2023-02-28T09:11:11;5.80;79.70
56538;DHT22;42435;53.292;6.000;2023-02-28T09:13:37;5.90;79.40
56538;DHT22;42435;53.292;6.000;2023-02-28T09:16:05;5.90;79.10
56538;DHT22;42435;53.292;6.000;2023-02-28T09:18:31;5.90;79.00
56538;DHT22;42435;53.292;6.000;2023-02-28T09:21:10;5.90;79.00
56538;DHT22;42435;53.292;6.000;2023-02-28T09:23:39;6.00;78.90
56538;DHT22;42435;53.292;6.000;2023-02-28T09:26:05;6.10;78.80
56538;DHT22;42435;53.292;6.000;2023-02-28T09:28:31;6.20;78.80
56538;DHT22;42435;53.292;6.000;2023-02-28T09:30:59;6.30;78.80
56538;DHT22;42435;53.292;6.000;2023-02-28T09:33:25;6.40;78.60
56538;DHT22;42435;53.292;6.000;2023-02-28T09:35:58;6.50;78.30
56538;DHT22;42435;53.292;6.000;2023-02-28T09:38:25;6.60;78.20
56538;DHT22;42435;53.292;6.000;2023-02-28T09:40:53;6.70;78.00
56538;DHT22;42435;53.292;6.000;2023-02-28T09:43:22;6.80;77.70
56538;DHT22;42435;53.292;6.000;2023-02-28T09:45:59;6.90;77.60
56538;DHT22;42435;53.292;6.000;2023-02-28T09:48:33;7.00;77.30
56538;DHT22;42435;53.292;6.000;2023-02-28T09:51:57;7.10;76.80
56538;DHT22;42435;53.292;6.000;2023-02-28T09:53:56;7.20;76.40
56538;DHT22;42435;53.292;6.000;2023-02-28T09:56:30;7.20;76.20
56538;DHT22;42435;53.292;6.000;2023-02-28T10:01:57;7.40;75.90
56538;DHT22;42435;53.292;6.000;2023-02-28T10:07:55;7.50;75.50
56538;DHT22;42435;53.292;6.000;2023-02-28T10:10:34;7.40;75.10
56538;DHT22;42435;53.292;6.000;2023-02-28T10:13:03;7.40;74.90
56538;DHT22;42435;53.292;6.000;2023-02-28T10:15:31;7.40;74.80
56538;DHT22;42435;53.292;6.000;2023-02-28T10:18:04;7.40;75.00
56538;DHT22;42435;53.292;6.000;2023-02-28T10:20:38;7.40;75.00
56538;DHT22;42435;53.292;6.000;2023-02-28T10:23:13;7.40;74.80
56538;DHT22;42435;53.292;6.000;2023-02-28T10:25:47;7.50;74.70
56538;DHT22;42435;53.292;6.000;2023-02-28T10:28:15;7.50;74.50
56538;DHT22;42435;53.292;6.000;2023-02-28T10:30:51;7.60;74.40
56538;DHT22;42435;53.292;6.000;2023-02-28T10:33:18;7.70;74.10
56538;DHT22;42435;53.292;6.000;2023-02-28T10:35:45;7.80;74.20
56538;DHT22;42435;53.292;6.000;2023-02-28T10:38:26;7.90;74.10
56538;DHT22;42435;53.292;6.000;2023-02-28T10:41:07;8.10;73.60
56538;DHT22;42435;53.292;6.000;2023-02-28T10:43:34;8.20;73.00
56538;DHT22;42435;53.292;6.000;2023-02-28T10:48:41;8.50;72.60
56538;DHT22;42435;53.292;6.000;2023-02-28T10:51:15;8.70;72.30
56538;DHT22;42435;53.292;6.000;2023-02-28T10:53:50;8.90;72.10
56538;DHT22;42435;53.292;6.000;2023-02-28T10:56:22;9.10;71.00
56538;DHT22;42435;53.292;6.000;2023-02-28T10:58:59;9.20;70.40
56538;DHT22;42435;53.292;6.000;2023-02-28T11:03:58;9.20;68.50
56538;DHT22;42435;53.292;6.000;2023-02-28T11:06:32;9.30;68.20
56538;DHT22;42435;53.292;6.000;2023-02-28T11:09:03;9.20;67.90
56538;DHT22;42435;53.292;6.000;2023-02-28T11:11:31;9.30;68.00
56538;DHT22;42435;53.292;6.000;2023-02-28T11:14:17;9.30;67.60
56538;DHT22;42435;53.292;6.000;2023-02-28T11:16:44;9.40;67.00
56538;DHT22;42435;53.292;6.000;2023-02-28T11:19:28;9.50;67.30
56538;DHT22;42435;53.292;6.000;2023-02-28T11:21:59;9.60;66.60
56538;DHT22;42435;53.292;6.000;2023-02-28T11:24:31;9.80;66.70
56538;DHT22;42435;53.292;6.000;2023-02-28T11:26:59;9.90;66.20
56538;DHT22;42435;53.292;6.000;2023-02-28T11:29:30;10.20;65.90
56538;DHT22;42435;53.292;6.000;2023-02-28T11:32:13;10.40;65.10
56538;DHT22;42435;53.292;6.000;2023-02-28T11:34:39;10.50;64.00
56538;DHT22;42435;53.292;6.000;2023-02-28T11:37:16;10.70;63.50
56538;DHT22;42435;53.292;6.000;2023-02-28T11:39:44;10.80;62.60
56538;DHT22;42435;53.292;6.000;2023-02-28T11:45:02;11.20;62.00
56538;DHT22;42435;53.292;6.000;2023-02-28T11:47:42;11.40;63.10
56538;DHT22;42435;53.292;6.000;2023-02-28T11:53:01;11.60;60.00
56538;DHT22;42435;53.292;6.000;2023-02-28T11:55:37;11.60;60.10
56538;DHT22;42435;53.292;6.000;2023-02-28T12:01:07;11.80;58.80
56538;DHT22;42435;53.292;6.000;2023-02-28T12:03:44;11.90;57.60
56538;DHT22;42435;53.292;6.000;2023-02-28T12:06:24;12.00;57.70
56538;DHT22;42435;53.292;6.000;2023-02-28T12:09:09;12.10;57.10
56538;DHT22;42435;53.292;6.000;2023-02-28T12:12:12;12.20;56.60
56538;DHT22;42435;53.292;6.000;2023-02-28T12:14:50;12.20;56.80
56538;DHT22;42435;53.292;6.000;2023-02-28T12:17:41;12.00;56.10
56538;DHT22;42435;53.292;6.000;2023-02-28T12:20:38;11.90;56.90
56538;DHT22;42435;53.292;6.000;2023-02-28T12:25:56;11.90;56.40
56538;DHT22;42435;53.292;6.000;2023-02-28T12:28:30;11.80;56.10
56538;DHT22;42435;53.292;6.000;2023-02-28T12:31:01;11.60;55.30
56538;DHT22;42435;53.292;6.000;2023-02-28T12:33:34;11.50;55.40
56538;DHT22;42435;53.292;6.000;2023-02-28T12:36:05;11.50;55.20
56538;DHT22;42435;53.292;6.000;2023-02-28T12:38:45;11.40;55.10
56538;DHT22;42435;53.292;6.000;2023-02-28T12:41:24;11.40;55.30
56538;DHT22;42435;53.292;6.000;2023-02-28T12:44:06;11.40;55.40
56538;DHT22;42435;53.292;6.000;2023-02-28T12:46:38;11.50;55.30
56538;DHT22;42435;53.292;6.000;2023-02-28T12:49:13;11.60;55.40
56538;DHT22;42435;53.292;6.000;2023-02-28T12:51:40;11.70;54.90
56538;DHT22;42435;53.292;6.000;2023-02-28T12:54:39;11.80;55.00
56538;DHT22;42435;53.292;6.000;2023-02-28T13:00:03;11.90;54.90
56538;DHT22;42435;53.292;6.000;2023-02-28T13:05:46;12.00;54.80
56538;DHT22;42435;53.292;6.000;2023-02-28T13:11:03;12.20;54.40
56538;DHT22;42435;53.292;6.000;2023-02-28T13:13:30;12.30;53.80
56538;DHT22;42435;53.292;6.000;2023-02-28T13:18:30;12.10;52.80
56538;DHT22;42435;53.292;6.000;2023-02-28T13:20:56;12.00;52.90
56538;DHT22;42435;53.292;6.000;2023-02-28T13:26:03;11.90;52.50
56538;DHT22;42435;53.292;6.000;2023-02-28T13:31:19;11.90;53.40
56538;DHT22;42435;53.292;6.000;2023-02-28T13:36:29;12.00;53.50
56538;DHT22;42435;53.292;6.000;2023-02-28T13:39:01;12.10;53.50
56538;DHT22;42435;53.292;6.000;2023-02-28T13:46:29;12.30;53.10
56538;DHT22;42435;53.292;6.000;2023-02-28T13:48:55;12.30;53.20
56538;DHT22;42435;53.292;6.000;2023-02-28T13:51:46;12.40;53.20
56538;DHT22;42435;53.292;6.000;2023-02-28T14:00:14;12.70;52.70
56538;DHT22;42435;53.292;6.000;2023-02-28T14:02:48;12.80;52.40
56538;DHT22;42435;53.292;6.000;2023-02-28T14:05:18;12.90;52.80
56538;DHT22;42435;53.292;6.000;2023-02-28T14:07:57;12.90;51.90
56538;DHT22;42435;53.292;6.000;2023-02-28T14:10:25;12.60;51.60
56538;DHT22;42435;53.292;6.000;2023-02-28T14:12:58;12.40;51.80
56538;DHT22;42435;53.292;6.000;2023-02-28T14:15:37;12.20;51.80
56538;DHT22;42435;53.292;6.000;2023-02-28T14:18:28;11.90;52.20
56538;DHT22;42435;53.292;6.000;2023-02-28T14:27:22;11.50;52.40
56538;DHT22;42435;53.292;6.000;2023-02-28T14:37:38;11.00;52.40
56538;DHT22;42435;53.292;6.000;2023-02-28T14:40:14;10.90;52.40
56538;DHT22;42435;53.292;6.000;2023-02-28T14:42:46;10.70;52.30
56538;DHT22;42435;53.292;6.000;2023-02-28T14:45:19;10.70;53.10
56538;DHT22;42435;53.292;6.000;2023-02-28T14:47:46;10.70;53.10
56538;DHT22;42435;53.292;6.000;2023-02-28T14:50:21;10.70;53.20
56538;DHT22;42435;53.292;6.000;2023-02-28T14:52:47;10.80;53.10
56538;DHT22;42435;53.292;6.000;2023-02-28T14:55:16;10.80;53.60
56538;DHT22;42435;53.292;6.000;2023-02-28T14:57:55;10.80;54.00
56538;DHT22;42435;53.292;6.000;2023-02-28T15:00:31;10.80;54.10
56538;DHT22;42435;53.292;6.000;2023-02-28T15:02:59;10.90;54.40
56538;DHT22;42435;53.292;6.000;2023-02-28T15:08:14;11.00;54.00
56538;DHT22;42435;53.292;6.000;2023-02-28T15:10:44;11.00;53.40
56538;DHT22;42435;53.292;6.000;2023-02-28T15:13:13;11.00;53.30
56538;DHT22;42435;53.292;6.000;2023-02-28T15:15:58;11.00;53.20
56538;DHT22;42435;53.292;6.000;2023-02-28T15:19:00;10.90;52.90
56538;DHT22;42435;53.292;6.000;2023-02-28T15:21:32;10.90;53.20
56538;DHT22;42435;53.292;6.000;2023-02-28T15:24:08;10.90;53.20
56538;DHT22;42435;53.292;6.000;2023-02-28T15:26:39;10.90;53.10
56538;DHT22;42435;53.292;6.000;2023-02-28T15:29:11;10.80;52.90
56538;DHT22;42435;53.292;6.000;2023-02-28T15:31:43;10.80;53.00
56538;DHT22;42435;53.292;6.000;2023-02-28T15:34:21;10.80;53.10
56538;DHT22;42435;53.292;6.000;2023-02-28T15:36:47;10.80;53.20
56538;DHT22;42435;53.292;6.000;2023-02-28T15:39:27;10.80;53.20
56538;DHT22;42435;53.292;6.000;2023-02-28T15:42:10;10.90;52.90
56538;DHT22;42435;53.292;6.000;2023-02-28T15:44:36;10.80;52.70
56538;DHT22;42435;53.292;6.000;2023-02-28T15:47:06;10.80;53.20
56538;DHT22;42435;53.292;6.000;2023-02-28T15:49:40;10.80;53.20
56538;DHT22;42435;53.292;6.000;2023-02-28T15:52:13;10.80;52.80
56538;DHT22;42435;53.292;6.000;2023-02-28T15:54:41;10.70;52.40
56538;DHT22;42435;53.292;6.000;2023-02-28T15:57:15;10.70;52.50
56538;DHT22;42435;53.292;6.000;2023-02-28T15:59:50;10.60;52.00
56538;DHT22;42435;53.292;6.000;2023-02-28T16:02:19;10.50;52.40
56538;DHT22;42435;53.292;6.000;2023-02-28T16:07:46;10.30;53.20
56538;DHT22;42435;53.292;6.000;2023-02-28T16:10:14;10.20;53.10
56538;DHT22;42435;53.292;6.000;2023-02-28T16:12:40;10.10;53.50
56538;DHT22;42435;53.292;6.000;2023-02-28T16:15:19;10.00;54.50
56538;DHT22;42435;53.292;6.000;2023-02-28T16:17:45;9.80;56.10
56538;DHT22;42435;53.292;6.000;2023-02-28T16:20:23;9.70;56.60
56538;DHT22;42435;53.292;6.000;2023-02-28T16:22:49;9.50;57.50
56538;DHT22;42435;53.292;6.000;2023-02-28T16:25:19;9.50;57.90
56538;DHT22;42435;53.292;6.000;2023-02-28T16:27:48;9.40;58.40
56538;DHT22;42435;53.292;6.000;2023-02-28T16:30:23;9.20;58.80
56538;DHT22;42435;53.292;6.000;2023-02-28T16:32:49;9.10;59.40
56538;DHT22;42435;53.292;6.000;2023-02-28T16:35:16;9.00;59.60
56538;DHT22;42435;53.292;6.000;2023-02-28T16:37:43;8.90;59.90
56538;DHT22;42435;53.292;6.000;2023-02-28T16:40:14;8.80;60.20
56538;DHT22;42435;53.292;6.000;2023-02-28T16:42:40;8.70;60.70
56538;DHT22;42435;53.292;6.000;2023-02-28T16:45:09;8.60;60.80
56538;DHT22;42435;53.292;6.000;2023-02-28T16:47:36;8.50;61.00
56538;DHT22;42435;53.292;6.000;2023-02-28T16:50:15;8.40;61.30
56538;DHT22;42435;53.292;6.000;2023-02-28T16:52:41;8.30;61.70
56538;DHT22;42435;53.292;6.000;2023-02-28T16:55:06;8.10;61.90
56538;DHT22;42435;53.292;6.000;2023-02-28T16:57:32;8.00;62.30
56538;DHT22;42435;53.292;6.000;2023-02-28T16:59:58;7.90;62.70
56538;DHT22;42435;53.292;6.000;2023-02-28T17:02:23;7.70;63.10
56538;DHT22;42435;53.292;6.000;2023-02-28T17:04:49;7.60;63.40
56538;DHT22;42435;53.292;6.000;2023-02-28T17:07:16;7.50;63.80
56538;DHT22;42435;53.292;6.000;2023-02-28T17:09:42;7.30;64.20
56538;DHT22;42435;53.292;6.000;2023-02-28T17:12:08;7.30;64.60
56538;DHT22;42435;53.292;6.000;2023-02-28T17:14:34;7.10;64.80
56538;DHT22;42435;53.292;6.000;2023-02-28T17:17:00;7.00;65.10
56538;DHT22;42435;53.292;6.000;2023-02-28T17:19:26;6.90;65.50
56538;DHT22;42435;53.292;6.000;2023-02-28T17:21:51;6.90;65.90
56538;DHT22;42435;53.292;6.000;2023-02-28T17:24:18;6.80;66.30
56538;DHT22;42435;53.292;6.000;2023-02-28T17:26:43;6.70;66.60
56538;DHT22;42435;53.292;6.000;2023-02-28T17:29:18;6.60;66.80
56538;DHT22;42435;53.292;6.000;2023-02-28T17:31:44;6.50;67.30
56538;DHT22;42435;53.292;6.000;2023-02-28T17:34:10;6.40;67.20
56538;DHT22;42435;53.292;6.000;2023-02-28T17:36:37;6.30;67.50
56538;DHT22;42435;53.292;6.000;2023-02-28T17:39:04;6.20;67.90
56538;DHT22;42435;53.292;6.000;2023-02-28T17:41:34;6.10;68.30
56538;DHT22;42435;53.292;6.000;2023-02-28T17:44:02;6.00;68.60
56538;DHT22;42435;53.292;6.000;2023-02-28T17:46:28;5.90;68.80